Time;durP1;ratioP1;P1;durP2;ratioP2;P2;SDS_P1;SDS_P2;PMS_P1;PMS_P2;Temp;Humidity;BMP_temperature;BMP_pressure;BME280_temperature;BME280_humidity;BME280_pressure;Samples;Min_cycle;Max_cycle;Signal;HPM_P1;HPM_P2
2022/07/12 00:01:39;;;;;;;4.90;1.38;;;;;;;22.27;51.13;98975.16;4954401;29;20051;-49
2022/07/12 00:04:05;;;;;;;5.32;1.20;;;;;;;22.17;51.23;98969.00;4954357;29;20592;-49
2022/07/12 00:06:30;;;;;;;3.08;1.70;;;;;;;22.02;51.44;98973.31;4955708;29;20102;-49
2022/07/12 00:08:56;;;;;;;2.63;1.25;;;;;;;21.99;51.44;98963.13;4955614;29;20102;-50
2022/07/12 00:11:22;;;;;;;4.65;1.67;;;;;;;22.03;51.92;98966.09;4955867;29;20038;-49
2022/07/12 00:13:47;;;;;;;4.07;1.20;;;;;;;22.07;51.26;98964.47;4955571;28;20062;-50
2022/07/12 00:16:13;;;;;;;7.93;1.50;;;;;;;22.17;51.50;98971.69;4954182;29;20042;-49
2022/07/12 00:18:39;;;;;;;4.03;1.65;;;;;;;22.26;51.32;98976.25;4955512;29;20105;-49
2022/07/12 00:21:05;;;;;;;7.43;2.15;;;;;;;22.43;51.18;98970.59;4954203;29;20397;-50
2022/07/12 00:23:30;;;;;;;7.15;1.30;;;;;;;22.70;50.40;98967.59;4955314;28;20081;-49
2022/07/12 00:25:56;;;;;;;8.85;2.08;;;;;;;22.64;50.28;98971.34;4955335;28;20023;-49
2022/07/12 00:28:22;;;;;;;4.45;1.52;;;;;;;22.54;50.52;98963.38;4955234;28;20027;-49
2022/07/12 00:30:47;;;;;;;4.38;1.20;;;;;;;22.40;51.03;98970.34;4955238;29;20028;-49
2022/07/12 00:33:13;;;;;;;5.10;1.42;;;;;;;22.28;50.74;98973.31;4953937;29;20516;-49
2022/07/12 00:35:39;;;;;;;7.65;2.00;;;;;;;21.96;51.87;98979.72;4955343;28;20059;-49
2022/07/12 00:38:04;;;;;;;3.88;1.30;;;;;;;21.90;51.71;98981.59;4954863;28;20143;-49
2022/07/12 00:40:30;;;;;;;3.13;1.75;;;;;;;21.77;51.98;98986.66;4953765;29;20031;-49
2022/07/12 00:42:56;;;;;;;6.63;2.15;;;;;;;21.49;52.82;98978.91;4953700;29;20038;-49
2022/07/12 00:45:21;;;;;;;5.90;1.30;;;;;;;21.51;53.00;98983.94;4953580;29;20028;-50
2022/07/12 00:47:50;;;;;;;4.78;1.50;;;;;;;21.49;53.12;98986.09;4952948;28;20118;-50
2022/07/12 00:50:18;;;;;;;4.93;1.27;;;;;;;21.32;53.46;98986.28;4953549;29;20035;-49
2022/07/12 00:52:47;;;;;;;6.43;1.25;;;;;;;21.05;54.18;98987.28;4954843;28;20506;-49
2022/07/12 00:55:14;;;;;;;5.00;1.35;;;;;;;20.88;54.61;98989.34;4954797;28;20030;-49
2022/07/12 00:57:43;;;;;;;7.35;3.17;;;;;;;20.83;54.97;98987.47;4953421;29;20114;-49
2022/07/12 01:00:11;;;;;;;2.80;1.70;;;;;;;20.73;55.16;98990.09;4954721;28;20197;-50
2022/07/12 01:02:37;;;;;;;8.07;1.80;;;;;;;20.55;55.57;98983.28;4954667;28;20035;-49
2022/07/12 01:05:07;;;;;;;6.20;1.70;;;;;;;20.49;55.96;98990.47;4953225;29;20024;-49
2022/07/12 01:07:35;;;;;;;4.43;1.70;;;;;;;20.55;55.69;98989.44;4953361;29;20421;-49
2022/07/12 01:10:03;;;;;;;4.32;1.95;;;;;;;20.60;55.54;98995.88;4954516;28;20102;-49
2022/07/12 01:12:29;;;;;;;7.00;1.50;;;;;;;20.62;55.79;98999.09;4969329;28;20027;-49
2022/07/12 01:14:56;;;;;;;3.58;1.67;;;;;;;20.60;55.78;98996.69;4953165;29;20023;-49
2022/07/12 01:17:24;;;;;;;5.35;1.33;;;;;;;20.59;55.95;98994.28;4953104;29;20031;-49
2022/07/12 01:19:51;;;;;;;3.63;1.60;;;;;;;20.48;55.99;98996.88;4953073;29;20032;-50
2022/07/12 01:22:18;;;;;;;5.65;1.70;;;;;;;20.51;56.23;98998.22;4954397;28;20077;-50
2022/07/12 01:24:45;;;;;;;6.55;1.85;;;;;;;20.62;55.97;98997.22;4952875;29;20514;-49
2022/07/12 01:27:12;;;;;;;5.15;1.25;;;;;;;20.70;55.56;98999.38;4952936;29;20030;-50
2022/07/12 01:29:39;;;;;;;4.88;3.03;;;;;;;20.67;55.38;99004.47;4952947;29;20023;-49
2022/07/12 01:32:24;;;;;;;7.55;2.28;;;;;;;20.68;55.54;99004.19;4954270;28;20024;-49
2022/07/12 01:34:58;;;;;;;2.72;1.50;;;;;;;20.70;55.38;99006.59;4952918;29;20031;-49
2022/07/12 01:37:33;;;;;;;2.72;1.58;;;;;;;20.70;55.18;99002.06;4952657;29;20489;-49
2022/07/12 01:39:59;;;;;;;2.72;1.40;;;;;;;20.62;55.51;99005.22;4954117;28;20513;-50
2022/07/12 01:42:29;;;;;;;9.05;2.28;;;;;;;20.57;55.71;99002.50;4952783;29;20055;-50
2022/07/12 01:44:56;;;;;;;1.77;1.23;;;;;;;20.62;55.57;99007.09;4952940;29;20082;-49
2022/07/12 01:47:29;;;;;;;4.00;1.42;;;;;;;20.65;55.73;99001.25;4952760;29;20038;-49
2022/07/12 01:49:54;;;;;;;7.05;1.52;;;;;;;20.59;55.59;99005.75;4953009;29;20035;-49
2022/07/12 01:52:21;;;;;;;3.15;1.42;;;;;;;20.55;55.58;98997.44;4952649;29;20027;-49
2022/07/12 01:54:47;;;;;;;6.03;1.70;;;;;;;20.51;55.79;99008.88;4953880;28;20031;-49
2022/07/12 01:57:13;;;;;;;3.20;1.38;;;;;;;20.48;55.90;99018.19;4952649;29;20024;-49
2022/07/12 01:59:40;;;;;;;5.05;1.63;;;;;;;20.42;56.25;99008.53;4953857;28;20404;-50
2022/07/12 02:02:07;;;;;;;3.80;1.35;;;;;;;20.42;56.21;99010.41;4952528;29;20034;-49
2022/07/12 02:04:33;;;;;;;4.15;1.63;;;;;;;20.27;56.60;99021.78;4953717;29;20023;-49
2022/07/12 02:07:00;;;;;;;6.43;1.65;;;;;;;20.19;56.88;99017.72;4953781;28;20461;-49
2022/07/12 02:09:26;;;;;;;5.68;1.40;;;;;;;20.27;56.74;99019.91;4952502;29;20172;-49
2022/07/12 02:11:53;;;;;;;7.82;1.77;;;;;;;20.22;56.74;99008.41;4952368;29;20489;-49
2022/07/12 02:14:19;;;;;;;7.95;1.50;;;;;;;20.27;56.71;99021.78;4953694;28;20059;-49
2022/07/12 02:16:45;;;;;;;2.90;1.48;;;;;;;20.22;56.65;99016.41;4952365;29;20650;-49
2022/07/12 02:19:12;;;;;;;5.00;2.55;;;;;;;20.10;56.68;99020.06;4952368;29;20034;-49
2022/07/12 02:21:38;;;;;;;4.20;1.35;;;;;;;19.97;57.10;99023.13;4952316;29;20460;-49
2022/07/12 02:24:04;;;;;;;6.43;1.50;;;;;;;19.82;57.66;99029.13;4952222;29;20641;-49
2022/07/12 02:26:32;;;;;;;4.03;1.40;;;;;;;19.68;58.00;99028.72;4953578;28;20020;-49
2022/07/12 02:28:57;;;;;;;6.10;1.50;;;;;;;19.47;58.62;99027.69;4952286;29;20035;-49
2022/07/12 02:31:23;;;;;;;5.38;1.35;;;;;;;19.36;58.89;99029.44;4952235;29;20406;-50
2022/07/12 02:33:49;;;;;;;3.90;1.40;;;;;;;19.43;59.13;99026.56;4952247;29;20118;-49
2022/07/12 02:36:14;;;;;;;12.85;2.30;;;;;;;19.60;58.95;99031.00;4952183;29;20076;-49
2022/07/12 02:38:40;;;;;;;11.38;1.88;;;;;;;19.83;58.23;99036.06;4953295;28;20043;-49
2022/07/12 02:41:06;;;;;;;6.90;1.55;;;;;;;19.96;57.79;99026.88;4952166;29;20122;-49
2022/07/12 02:43:32;;;;;;;3.95;1.33;;;;;;;20.09;57.50;99033.63;4953314;29;20060;-49
2022/07/12 02:46:09;;;;;;;5.30;1.30;;;;;;;20.17;57.15;99030.50;4953389;29;20024;-49
2022/07/12 02:48:36;;;;;;;4.80;1.50;;;;;;;20.23;56.88;99028.66;4952090;29;20028;-49
2022/07/12 02:51:03;;;;;;;2.58;1.20;;;;;;;20.13;56.68;99034.72;4953382;28;20032;-49
2022/07/12 02:53:29;;;;;;;4.97;1.48;;;;;;;19.87;57.14;99036.38;4952055;29;20069;-49
2022/07/12 02:55:55;;;;;;;3.25;1.20;;;;;;;19.72;57.68;99040.50;4952011;29;20031;-49
2022/07/12 02:58:21;;;;;;;2.83;1.08;;;;;;;19.69;57.92;99040.16;4953329;28;20490;-49
2022/07/12 03:00:47;;;;;;;2.92;1.45;;;;;;;19.66;57.87;99045.97;4951972;29;20030;-49
2022/07/12 03:03:14;;;;;;;7.18;1.60;;;;;;;19.56;58.08;99041.38;4953250;29;20023;-49
2022/07/12 03:05:40;;;;;;;3.60;1.40;;;;;;;19.59;58.02;99048.84;4953162;28;20090;-49
2022/07/12 03:08:08;;;;;;;5.47;1.40;;;;;;;19.59;58.24;99042.72;4951951;29;20033;-49
2022/07/12 03:10:35;;;;;;;4.53;1.50;;;;;;;19.62;58.18;99048.34;4953324;28;20016;-49
2022/07/12 03:13:01;;;;;;;3.20;1.50;;;;;;;19.60;58.16;99045.13;4956680;28;20485;-49
2022/07/12 03:15:28;;;;;;;6.60;1.60;;;;;;;19.51;58.20;99052.75;4955374;29;20236;-49
2022/07/12 03:17:55;;;;;;;4.22;1.35;;;;;;;19.38;58.61;99044.34;4956642;28;20078;-49
2022/07/12 03:20:21;;;;;;;5.50;1.48;;;;;;;19.30;58.94;99062.38;4956562;28;20025;-49
2022/07/12 03:22:48;;;;;;;3.10;1.50;;;;;;;19.29;58.78;99060.75;4955258;29;20073;-49
2022/07/12 03:25:14;;;;;;;4.78;1.70;;;;;;;19.25;59.21;99074.81;4956459;28;20513;-49
2022/07/12 03:27:41;;;;;;;6.90;1.33;;;;;;;19.33;59.02;99072.50;4956493;28;20457;-49
2022/07/12 03:30:08;;;;;;;8.05;1.55;;;;;;;19.35;58.95;99065.06;4955073;29;20429;-49
2022/07/12 03:32:33;;;;;;;7.10;1.77;;;;;;;19.39;58.74;99062.72;4956326;28;20082;-49
2022/07/12 03:34:59;;;;;;;6.72;1.75;;;;;;;19.48;58.65;99068.44;4956349;28;20433;-49
2022/07/12 03:37:25;;;;;;;3.92;1.33;;;;;;;19.58;58.35;99065.88;4956049;28;20038;-49
2022/07/12 03:39:51;;;;;;;6.18;2.40;;;;;;;19.70;58.33;99063.06;4956278;29;20098;-49
2022/07/12 03:42:16;;;;;;;5.40;1.73;;;;;;;19.84;57.52;99064.31;4954865;29;20122;-49
2022/07/12 03:44:43;;;;;;;7.95;1.55;;;;;;;19.94;57.36;99063.59;4954741;29;20094;-49
2022/07/12 03:47:08;;;;;;;4.38;1.20;;;;;;;20.04;57.02;99066.38;4956046;28;20392;-49
2022/07/12 03:49:34;;;;;;;2.58;1.15;;;;;;;19.94;56.74;99074.25;4956066;29;20054;-49
2022/07/12 03:52:00;;;;;;;3.40;1.35;;;;;;;19.56;57.31;99073.31;4955962;29;20019;-49
2022/07/12 03:54:25;;;;;;;3.00;1.27;;;;;;;19.44;58.08;99075.31;4955935;29;20506;-49
2022/07/12 03:59:35;;;;;;;7.05;1.35;;;;;;;19.38;58.50;99077.09;4955906;29;20069;-49
2022/07/12 04:02:04;;;;;;;4.70;1.20;;;;;;;19.41;58.21;99073.94;4955803;29;20511;-49
2022/07/12 04:04:29;;;;;;;1.95;1.10;;;;;;;19.34;58.35;99078.66;4955755;29;20114;-49
2022/07/12 04:06:55;;;;;;;4.90;2.20;;;;;;;19.22;58.49;99083.28;4955735;29;20110;-49
2022/07/12 04:09:21;;;;;;;5.88;1.98;;;;;;;19.10;58.84;99080.75;4955693;29;20031;-49
2022/07/12 04:11:47;;;;;;;6.60;1.75;;;;;;;19.13;58.88;99080.22;4955627;29;20032;-49
2022/07/12 04:14:13;;;;;;;8.70;3.33;;;;;;;19.11;59.15;99083.13;4955616;28;20086;-49
2022/07/12 04:16:39;;;;;;;6.43;3.30;;;;;;;19.34;59.09;99084.78;4955532;28;20604;-49
2022/07/12 04:19:05;;;;;;;3.30;1.85;;;;;;;19.51;58.23;99082.03;4955535;28;20067;-49
2022/07/12 04:21:31;;;;;;;8.90;2.30;;;;;;;19.49;58.06;99081.47;4954534;28;20054;-49
2022/07/12 04:23:57;;;;;;;5.57;2.13;;;;;;;19.40;58.11;99076.81;4953978;29;20473;-49
2022/07/12 04:26:23;;;;;;;7.80;1.70;;;;;;;19.38;58.17;99087.75;4955331;28;20023;-49
2022/07/12 04:28:49;;;;;;;8.68;1.50;;;;;;;19.38;58.20;99079.75;4955304;29;20560;-49
2022/07/12 04:31:15;;;;;;;20.60;3.17;;;;;;;19.36;58.46;99090.66;4955292;28;20023;-49
2022/07/12 04:33:40;;;;;;;6.90;1.80;;;;;;;19.40;58.19;99095.47;4955254;28;20046;-49
2022/07/12 04:36:06;;;;;;;8.15;1.80;;;;;;;19.20;58.52;99091.50;4955190;28;20019;-49
2022/07/12 04:38:32;;;;;;;8.50;1.80;;;;;;;19.01;59.06;99095.50;4954910;28;20054;-49
2022/07/12 04:40:58;;;;;;;4.75;1.88;;;;;;;18.86;59.60;99101.44;4955144;28;20027;-49
2022/07/12 04:43:24;;;;;;;12.10;1.77;;;;;;;18.84;60.00;99104.31;4955000;29;20023;-49
2022/07/12 04:45:50;;;;;;;4.97;1.73;;;;;;;18.86;59.83;99120.03;4953606;29;20039;-49
2022/07/12 04:48:16;;;;;;;14.70;2.60;;;;;;;19.28;59.42;99122.22;4954965;28;20031;-49
2022/07/12 04:50:42;;;;;;;11.10;2.00;;;;;;;19.45;58.58;99122.94;4954880;29;20033;-49
2022/07/12 04:53:09;;;;;;;7.20;1.60;;;;;;;19.40;58.70;99133.56;4954897;28;20016;-49
2022/07/12 04:55:35;;;;;;;35.20;3.88;;;;;;;19.84;58.28;99124.75;4953544;29;20039;-49
2022/07/12 04:58:01;;;;;;;13.48;2.10;;;;;;;20.42;57.00;99125.03;4954774;28;20516;-49
2022/07/12 05:00:27;;;;;;;9.90;2.30;;;;;;;21.01;55.49;99124.19;4953512;29;20033;-49
2022/07/12 05:02:53;;;;;;;8.50;1.90;;;;;;;22.25;52.68;99124.38;4954929;29;20118;-49
2022/07/12 05:05:19;;;;;;;16.77;3.58;;;;;;;23.53;49.40;99118.81;4954561;28;20086;-49
2022/07/12 05:07:45;;;;;;;26.48;4.07;;;;;;;24.95;46.14;99111.13;4954636;28;20019;-50
2022/07/12 05:10:11;;;;;;;13.23;2.97;;;;;;;26.02;43.37;99115.22;4954583;28;20526;-49
2022/07/12 05:12:38;;;;;;;9.15;2.47;;;;;;;27.00;40.96;99121.69;4954605;28;20023;-50
2022/07/12 05:15:05;;;;;;;300.23;270.48;;;;;;;27.99;38.93;99109.44;4954459;28;20027;-49
2022/07/12 05:17:31;;;;;;;78.60;31.27;;;;;;;28.79;37.57;99112.31;4954430;28;20026;-50
2022/07/12 05:19:57;;;;;;;13.13;2.65;;;;;;;29.37;36.02;99102.38;4954447;28;20436;-50
2022/07/12 05:22:22;;;;;;;11.73;2.13;;;;;;;29.70;34.72;99104.69;4954350;28;20111;-50
2022/07/12 05:24:48;;;;;;;12.90;2.03;;;;;;;29.50;34.67;99102.56;4954257;28;20059;-50
2022/07/12 05:27:14;;;;;;;4.35;1.58;;;;;;;29.06;35.19;99107.84;4952990;29;20027;-49
2022/07/12 05:29:40;;;;;;;5.70;1.85;;;;;;;28.60;35.49;99107.16;4954250;28;20037;-50
2022/07/12 05:32:06;;;;;;;7.43;1.80;;;;;;;28.34;36.69;99108.88;4954212;28;20492;-50
2022/07/12 05:34:32;;;;;;;7.38;2.42;;;;;;;28.78;35.91;99112.66;4953957;28;20031;-50
2022/07/12 05:36:58;;;;;;;7.68;2.00;;;;;;;29.67;35.05;99116.91;4954162;29;20023;-50
2022/07/12 05:39:24;;;;;;;6.32;1.63;;;;;;;30.44;33.55;99114.53;4953804;28;20122;-50
2022/07/12 05:41:49;;;;;;;10.90;2.35;;;;;;;30.78;32.99;99110.13;4954030;29;20071;-50
2022/07/12 05:44:18;;;;;;;13.45;3.45;;;;;;;31.42;32.19;99111.16;4953889;29;20066;-50
2022/07/12 05:46:45;;;;;;;13.82;2.70;;;;;;;32.00;31.70;99106.78;4953979;29;20067;-51
2022/07/12 05:49:11;;;;;;;3.42;1.33;;;;;;;32.56;30.30;99108.31;4953968;28;20027;-50
2022/07/12 05:54:21;;;;;;;11.23;2.75;;;;;;;33.80;28.62;99099.00;4953956;29;20042;-50
2022/07/12 05:56:48;;;;;;;10.40;2.15;;;;;;;34.39;27.82;99103.78;4953875;29;20027;-51
2022/07/12 05:59:13;;;;;;;17.83;2.65;;;;;;;35.00;26.87;99107.25;4953848;29;20062;-50
2022/07/12 06:01:39;;;;;;;20.00;2.38;;;;;;;35.36;26.03;99114.34;4953748;29;20054;-50
2022/07/12 06:04:05;;;;;;;28.17;4.90;;;;;;;35.64;25.84;99113.41;4953703;29;20027;-49
2022/07/12 06:06:31;;;;;;;24.10;3.22;;;;;;;35.76;25.60;99118.75;4953723;29;20035;-50
2022/07/12 06:08:57;;;;;;;30.05;3.85;;;;;;;35.49;25.95;99112.28;4953710;29;20034;-50
2022/07/12 06:11:22;;;;;;;28.00;4.00;;;;;;;35.54;25.66;99113.97;4953673;29;20070;-51
2022/07/12 06:13:49;;;;;;;14.35;2.70;;;;;;;36.02;25.38;99109.13;4953744;28;20016;-50
2022/07/12 06:16:14;;;;;;;12.70;2.42;;;;;;;36.84;24.30;99109.03;4953622;29;20115;-51
2022/07/12 06:18:40;;;;;;;8.82;2.17;;;;;;;36.99;24.07;99111.63;4953621;29;20113;-50
2022/07/12 06:21:06;;;;;;;13.82;2.40;;;;;;;37.09;23.92;99106.69;4952298;29;20028;-50
2022/07/12 06:23:32;;;;;;;9.85;1.75;;;;;;;37.48;23.55;99106.47;4953647;29;20023;-50
2022/07/12 06:25:57;;;;;;;11.80;2.20;;;;;;;37.35;24.02;99109.44;4953543;29;20588;-50
2022/07/12 06:28:23;;;;;;;8.93;2.00;;;;;;;37.64;23.62;99109.06;4953580;29;20019;-51
2022/07/12 06:30:49;;;;;;;4.05;1.65;;;;;;;37.85;23.05;99114.00;4953546;29;20027;-51
2022/07/12 06:33:14;;;;;;;8.80;2.28;;;;;;;38.02;22.92;99121.66;4936340;29;20087;-47
2022/07/12 06:35:40;;;;;;;10.23;1.92;;;;;;;38.54;22.59;99128.13;4953444;29;20031;-48
2022/07/12 06:38:06;;;;;;;3.33;1.55;;;;;;;38.97;22.18;99135.94;4953177;28;20063;-48
2022/07/12 06:40:32;;;;;;;6.70;1.52;;;;;;;39.17;21.97;99135.69;4953537;29;20031;-48
2022/07/12 06:42:57;;;;;;;10.02;1.88;;;;;;;39.21;21.84;99133.75;4953451;28;20448;-48
2022/07/12 06:45:24;;;;;;;15.43;1.65;;;;;;;39.56;21.10;99135.94;4954552;28;20038;-48
2022/07/12 06:47:50;;;;;;;7.90;1.50;;;;;;;39.62;21.09;99131.66;4957247;28;20034;-51
2022/07/12 06:50:16;;;;;;;3.08;1.30;;;;;;;40.11;20.62;99135.03;4957095;28;20039;-48
2022/07/12 06:52:42;;;;;;;10.40;2.10;;;;;;;39.82;21.14;99129.38;4957127;29;20030;-49
2022/07/12 06:55:08;;;;;;;4.68;1.30;;;;;;;39.55;21.11;99132.41;4955772;29;20036;-47
2022/07/12 06:57:35;;;;;;;12.45;1.50;;;;;;;39.52;21.15;99130.44;4957061;28;20023;-48
2022/07/12 07:00:02;;;;;;;6.38;1.75;;;;;;;39.51;21.41;99128.84;4956962;28;20023;-48
2022/07/12 07:02:28;;;;;;;5.72;1.55;;;;;;;39.53;21.31;99132.00;4956963;28;20029;-48
2022/07/12 07:04:53;;;;;;;5.13;1.60;;;;;;;40.06;20.67;99127.91;4956835;29;20027;-51
2022/07/12 07:07:19;;;;;;;3.47;1.70;;;;;;;40.31;20.36;99135.50;4956798;29;20027;-50
2022/07/12 07:09:45;;;;;;;10.05;2.03;;;;;;;40.31;20.33;99122.50;4956752;28;20511;-49
2022/07/12 07:12:11;;;;;;;13.63;2.40;;;;;;;40.45;20.39;99131.97;4956945;29;20027;-50
2022/07/12 07:14:36;;;;;;;6.60;1.40;;;;;;;40.89;19.82;99128.88;4956710;29;20382;-50
2022/07/12 07:17:02;;;;;;;11.50;2.30;;;;;;;41.07;19.78;99134.34;4956628;29;20019;-50
2022/07/12 07:19:28;;;;;;;6.00;1.77;;;;;;;41.32;19.39;99128.03;4956668;28;20062;-49
2022/07/12 07:21:54;;;;;;;10.32;1.63;;;;;;;41.30;19.40;99136.69;4956564;29;20046;-51
2022/07/12 07:24:21;;;;;;;13.40;2.58;;;;;;;41.10;19.57;99135.53;4955146;29;20374;-51
2022/07/12 07:26:47;;;;;;;11.50;2.17;;;;;;;40.78;19.92;99143.81;4955185;29;20030;-50
2022/07/12 07:31:57;;;;;;;7.47;1.60;;;;;;;40.24;20.36;99154.69;4956469;29;20165;-48
2022/07/12 07:34:23;;;;;;;10.02;1.98;;;;;;;40.01;20.83;99152.28;4956395;28;20031;-48
2022/07/12 07:36:50;;;;;;;5.53;1.63;;;;;;;39.65;20.93;99149.34;4956273;28;20404;-48
2022/07/12 07:39:16;;;;;;;5.82;1.60;;;;;;;38.86;21.80;99144.06;4956031;28;20062;-48
2022/07/12 07:41:42;;;;;;;7.85;2.25;;;;;;;38.44;22.67;99141.72;4954918;29;20520;-50
2022/07/12 07:44:08;;;;;;;4.40;1.35;;;;;;;38.37;22.58;99142.41;4956076;29;20532;-50
2022/07/12 07:46:34;;;;;;;5.93;1.90;;;;;;;38.39;22.59;99145.56;4956079;28;20078;-50
2022/07/12 07:48:59;;;;;;;9.25;1.70;;;;;;;38.12;22.89;99153.13;4956124;28;20027;-50
2022/07/12 07:51:25;;;;;;;3.65;1.38;;;;;;;38.29;23.09;99159.94;4956022;29;20027;-50
2022/07/12 07:53:51;;;;;;;5.43;1.35;;;;;;;38.77;22.07;99157.31;4956016;28;20505;-50
2022/07/12 07:56:17;;;;;;;11.60;2.00;;;;;;;39.39;21.61;99162.13;4954810;28;20083;-49
2022/07/12 07:58:42;;;;;;;9.45;1.75;;;;;;;39.73;21.43;99159.19;4954596;29;20023;-50
2022/07/12 08:01:08;;;;;;;8.07;1.77;;;;;;;40.22;20.93;99160.56;4954544;29;20031;-49
2022/07/12 08:03:34;;;;;;;17.45;2.53;;;;;;;40.80;20.32;99161.50;4955848;28;20035;-51
2022/07/12 08:06:00;;;;;;;14.45;1.95;;;;;;;41.18;19.89;99158.38;4955707;28;20114;-51
2022/07/12 08:08:28;;;;;;;9.70;1.60;;;;;;;41.63;19.25;99161.41;4955758;29;20052;-50
2022/07/12 08:10:55;;;;;;;9.85;1.83;;;;;;;42.19;18.71;99153.31;4955697;28;20034;-50
2022/07/12 08:13:21;;;;;;;9.63;1.98;;;;;;;42.67;18.67;99153.41;4955670;28;20399;-49
2022/07/12 08:15:46;;;;;;;18.35;2.70;;;;;;;42.86;18.31;99154.88;4955582;28;20031;-53
2022/07/12 08:18:13;;;;;;;5.35;1.20;;;;;;;43.20;17.90;99151.38;4954268;29;20031;-52
2022/07/12 08:20:39;;;;;;;24.90;3.05;;;;;;;43.57;17.35;99149.84;4954252;29;20031;-53
2022/07/12 08:23:04;;;;;;;10.60;1.98;;;;;;;43.79;17.06;99153.16;4955515;28;20548;-52
2022/07/12 08:25:30;;;;;;;17.88;2.00;;;;;;;43.73;17.47;99154.81;4955336;29;20031;-53
2022/07/12 08:27:56;;;;;;;17.50;2.20;;;;;;;43.66;17.84;99157.63;4955690;28;20102;-52
2022/07/12 08:30:23;;;;;;;12.55;1.90;;;;;;;43.68;17.53;99158.03;4955313;28;20031;-52
2022/07/12 08:32:49;;;;;;;38.92;4.60;;;;;;;43.46;17.58;99152.69;4955290;28;20047;-52
2022/07/12 08:35:15;;;;;;;39.00;4.50;;;;;;;43.54;18.26;99155.41;4955215;28;20082;-52
2022/07/12 08:37:41;;;;;;;10.18;1.48;;;;;;;43.45;17.04;99161.44;4955004;29;20027;-53
2022/07/12 08:40:07;;;;;;;9.23;1.42;;;;;;;43.41;16.91;99152.41;4953961;29;20038;-53
2022/07/12 08:42:33;;;;;;;10.20;1.58;;;;;;;43.19;17.36;99154.56;4955406;28;20034;-52
2022/07/12 08:44:59;;;;;;;6.00;1.30;;;;;;;43.40;17.09;99143.28;4953647;29;20082;-53
2022/07/12 08:47:25;;;;;;;9.07;1.63;;;;;;;44.11;16.20;99145.63;4954963;28;20027;-53
2022/07/12 08:50:11;;;;;;;4.75;1.40;;;;;;;44.51;15.80;99152.16;4954943;28;20028;-53
2022/07/12 08:52:43;;;;;;;13.48;2.22;;;;;;;44.55;16.41;99149.34;4953609;29;20094;-52
2022/07/12 08:55:24;;;;;;;4.38;1.30;;;;;;;44.31;16.01;99151.28;4954855;28;20572;-52
2022/07/12 08:57:52;;;;;;;9.88;1.65;;;;;;;44.55;16.15;99149.34;4954920;28;20038;-53
2022/07/12 09:00:19;;;;;;;7.13;1.92;;;;;;;44.70;15.70;99145.16;4955112;28;20090;-52
2022/07/12 09:03:03;;;;;;;13.13;1.90;;;;;;;44.34;16.14;99158.75;4954709;28;20027;-52
2022/07/12 09:05:30;;;;;;;4.03;1.25;;;;;;;44.37;15.66;99153.16;4954617;28;20015;-52
2022/07/12 09:08:06;;;;;;;5.57;1.40;;;;;;;44.55;15.82;99161.19;4954083;28;20031;-52
2022/07/12 09:10:33;;;;;;;3.83;1.10;;;;;;;44.96;15.28;99160.19;4953304;29;20031;-52
2022/07/12 09:12:59;;;;;;;5.60;1.40;;;;;;;45.37;14.83;99164.59;4953198;29;20430;-52
2022/07/12 09:15:26;;;;;;;8.70;1.50;;;;;;;45.40;14.89;99160.16;4954527;28;20020;-53
2022/07/12 09:18:01;;;;;;;2.92;1.25;;;;;;;44.93;15.55;99155.47;4954467;28;20106;-51
2022/07/12 09:20:32;;;;;;;43.22;4.00;;;;;;;44.96;15.37;99157.41;4954414;28;20031;-52
2022/07/12 09:23:00;;;;;;;19.70;2.10;;;;;;;45.09;15.20;99159.56;4954384;28;20409;-52
2022/07/12 09:25:26;;;;;;;24.83;2.40;;;;;;;45.20;15.06;99157.38;4952964;29;20054;-52
2022/07/12 09:27:57;;;;;;;15.73;1.73;;;;;;;44.90;15.10;99161.88;4954314;28;20027;-53
2022/07/12 09:30:25;;;;;;;17.25;2.22;;;;;;;44.07;15.88;99157.56;4954304;28;20453;-53
2022/07/12 09:38:20;;;;;;;7.05;1.35;;;;;;;44.43;15.74;99150.69;4954191;28;20106;-52
2022/07/12 09:40:47;;;;;;;2.65;0.90;;;;;;;44.73;15.55;99155.38;4954081;29;20512;-52
2022/07/12 09:43:14;;;;;;;4.65;1.00;;;;;;;45.02;14.88;99154.94;4954005;28;20023;-53
2022/07/12 09:45:41;;;;;;;5.18;1.23;;;;;;;45.52;14.46;99161.53;4953898;28;20031;-53
2022/07/12 09:48:08;;;;;;;2.60;1.17;;;;;;;45.56;14.51;99148.38;4952719;29;20027;-53
2022/07/12 09:50:35;;;;;;;5.22;1.00;;;;;;;45.54;14.36;99151.59;4954011;28;20031;-52
2022/07/12 09:53:03;;;;;;;4.03;1.00;;;;;;;45.23;14.63;99151.75;4953909;28;20078;-52
2022/07/12 09:55:38;;;;;;;2.67;1.00;;;;;;;45.12;14.77;99155.91;4952602;29;20562;-52
2022/07/12 09:58:07;;;;;;;4.03;1.10;;;;;;;45.12;14.46;99151.19;4953846;28;20023;-52
2022/07/12 10:00:34;;;;;;;2.65;0.85;;;;;;;45.10;14.67;99152.78;4953830;28;20019;-51
2022/07/12 10:03:00;;;;;;;2.00;0.90;;;;;;;44.63;14.81;99159.88;4953778;28;20074;-52
2022/07/12 10:05:28;;;;;;;4.50;1.08;;;;;;;44.74;15.09;99158.94;4953638;28;20024;-53
2022/07/12 10:07:54;;;;;;;4.45;0.98;;;;;;;45.14;14.74;99156.28;4953725;28;20027;-52
2022/07/12 10:10:19;;;;;;;7.03;1.10;;;;;;;45.13;14.80;99146.41;4952390;29;20038;-52
2022/07/12 10:12:45;;;;;;;4.05;1.20;;;;;;;45.15;14.66;99153.09;4953736;28;20020;-52
2022/07/12 10:15:17;;;;;;;7.88;1.10;;;;;;;45.24;15.11;99153.34;4952363;29;20035;-52
2022/07/12 10:17:55;;;;;;;5.40;1.20;;;;;;;45.32;14.93;99151.25;4952430;29;20108;-53
2022/07/12 10:20:26;;;;;;;4.18;1.20;;;;;;;44.86;15.55;99150.84;4955130;28;20036;-53
2022/07/12 10:23:34;;;;;;;5.43;1.13;;;;;;;44.80;15.30;99158.03;4957597;28;20059;-52
2022/07/12 10:26:01;;;;;;;5.38;1.30;;;;;;;44.74;15.71;99162.50;4957773;28;20552;-53
2022/07/12 10:29:12;;;;;;;6.70;1.60;;;;;;;44.32;15.99;99152.84;4957498;28;20105;-52
2022/07/12 10:31:40;;;;;;;9.98;1.35;;;;;;;44.06;16.14;99147.63;4953814;29;20414;-53
2022/07/12 10:34:23;;;;;;;5.57;1.35;;;;;;;44.59;15.67;99147.31;4957400;28;20035;-53
2022/07/12 10:36:55;;;;;;;6.80;1.30;;;;;;;44.99;15.66;99145.47;4957327;28;20576;-53
2022/07/12 10:39:21;;;;;;;6.60;1.20;;;;;;;45.08;15.08;99144.94;4957125;28;20043;-53
2022/07/12 10:42:05;;;;;;;6.00;1.20;;;;;;;44.88;15.12;99147.66;4956003;29;20123;-53
2022/07/12 10:44:36;;;;;;;2.50;1.00;;;;;;;44.82;15.35;99143.78;4957238;28;20074;-53
2022/07/12 10:47:03;;;;;;;7.07;1.00;;;;;;;44.48;15.89;99141.97;4957183;28;20015;-52
2022/07/12 10:49:31;;;;;;;17.08;2.63;;;;;;;44.08;16.01;99144.50;4955914;29;20031;-53
2022/07/12 10:52:11;;;;;;;11.10;1.70;;;;;;;43.85;16.47;99140.44;4957029;28;20039;-52
2022/07/12 10:54:37;;;;;;;8.38;1.73;;;;;;;43.72;16.04;99141.41;4957069;28;20034;-52
2022/07/12 10:57:03;;;;;;;12.25;2.05;;;;;;;44.01;16.69;99148.13;4957053;28;20027;-52
2022/07/12 10:59:33;;;;;;;8.88;1.00;;;;;;;44.01;15.70;99142.59;4955662;29;20513;-52
2022/07/12 11:01:59;;;;;;;6.13;1.27;;;;;;;43.85;15.89;99145.97;4956935;28;20580;-53
2022/07/12 11:04:27;;;;;;;3.75;0.95;;;;;;;44.03;15.93;99145.72;4956773;28;20042;-52
2022/07/12 11:06:58;;;;;;;9.00;1.10;;;;;;;44.40;15.57;99141.25;4956837;28;20027;-52
2022/07/12 11:09:25;;;;;;;7.88;1.27;;;;;;;44.54;15.73;99134.75;4956862;28;20027;-53
2022/07/12 11:11:52;;;;;;;30.85;3.65;;;;;;;44.41;15.35;99140.06;4956757;28;20024;-52
2022/07/12 11:14:30;;;;;;;10.57;1.40;;;;;;;44.08;15.28;99136.19;4955527;29;20031;-52
2022/07/12 11:16:57;;;;;;;5.53;1.13;;;;;;;44.15;15.05;99133.34;4956703;28;20394;-52
2022/07/12 11:19:31;;;;;;;9.52;2.00;;;;;;;44.15;15.11;99140.84;4956668;28;20023;-53
2022/07/12 11:21:58;;;;;;;5.68;1.10;;;;;;;44.28;15.33;99139.84;4956648;28;20031;-53
2022/07/12 11:24:32;;;;;;;6.45;0.90;;;;;;;44.54;14.83;99139.50;4956536;28;20077;-53
2022/07/12 11:27:01;;;;;;;3.85;1.10;;;;;;;44.45;15.51;99138.03;4955262;29;20035;-53
2022/07/12 11:29:27;;;;;;;2.85;0.77;;;;;;;44.19;15.44;99136.84;4956496;28;20039;-52
2022/07/12 11:32:03;;;;;;;4.50;1.17;;;;;;;43.41;16.30;99135.81;4954751;28;20034;-52
2022/07/12 11:34:29;;;;;;;3.78;1.58;;;;;;;43.16;16.40;99134.06;4956729;28;20035;-53
2022/07/12 11:36:56;;;;;;;2.15;1.15;;;;;;;42.95;16.21;99134.28;4955018;29;20110;-52
2022/07/12 11:39:39;;;;;;;3.08;1.00;;;;;;;43.00;16.32;99134.59;4956163;28;20063;-52
2022/07/12 11:42:07;;;;;;;3.92;1.10;;;;;;;43.11;16.03;99136.50;4955041;29;20086;-52
2022/07/12 11:45:05;;;;;;;19.27;1.60;;;;;;;43.22;16.31;99131.63;4956202;28;20071;-51
2022/07/12 11:47:32;;;;;;;3.58;1.00;;;;;;;42.80;16.35;99128.06;4923210;29;20039;-52